Time;durP1;ratioP1;P1;durP2;ratioP2;P2;SDS_P1;SDS_P2;PMS_P1;PMS_P2;Temp;Humidity;BMP_temperature;BMP_pressure;BME280_temperature;BME280_humidity;BME280_pressure;Samples;Min_cycle;Max_cycle;Signal;HPM_P1;HPM_P2
2021/12/31 00:01:10;;;;;;;6.35;2.95;;;;;;;12.55;93.23;101731.16;5063385;28;20020;-66
2021/12/31 00:03:35;;;;;;;5.15;3.08;;;;;;;12.55;93.01;101732.97;5063262;28;20052;-66
2021/12/31 00:06:00;;;;;;;8.82;2.90;;;;;;;12.54;92.70;101728.59;5061267;28;20047;-66
2021/12/31 00:08:26;;;;;;;5.38;2.88;;;;;;;12.54;93.13;101745.47;5065240;28;20040;-67
2021/12/31 00:10:56;;;;;;;8.63;2.95;;;;;;;12.54;92.95;101741.94;5063749;28;20033;-66
2021/12/31 00:13:22;;;;;;;9.85;2.92;;;;;;;12.52;92.88;101736.72;5064747;28;20033;-66
2021/12/31 00:15:47;;;;;;;6.50;2.72;;;;;;;12.53;92.80;101741.09;5062290;28;20356;-66
2021/12/31 00:18:12;;;;;;;6.10;3.28;;;;;;;12.53;92.65;101743.75;5060491;28;20025;-66
2021/12/31 00:20:40;;;;;;;11.85;6.70;;;;;;;12.51;92.99;101737.69;5062165;28;20058;-66
2021/12/31 00:23:07;;;;;;;8.15;3.10;;;;;;;12.50;92.57;101738.63;5063095;28;20046;-66
2021/12/31 00:25:38;;;;;;;7.07;2.80;;;;;;;12.50;92.88;101749.28;5061226;28;20033;-66
2021/12/31 00:28:04;;;;;;;5.65;2.55;;;;;;;12.50;92.36;101743.13;5060932;28;20059;-66
2021/12/31 00:30:30;;;;;;;6.93;2.97;;;;;;;12.50;92.03;101743.13;5061076;28;20475;-66
2021/12/31 00:32:56;;;;;;;7.38;2.70;;;;;;;12.48;92.21;101750.38;5061711;28;20044;-66
2021/12/31 00:35:21;;;;;;;7.95;3.47;;;;;;;12.49;92.35;101754.72;5062246;28;20037;-66
2021/12/31 00:37:47;;;;;;;5.45;2.60;;;;;;;12.46;91.83;101745.16;5063141;28;20037;-66
2021/12/31 00:40:16;;;;;;;6.60;2.70;;;;;;;12.46;92.39;101745.16;5063892;28;20029;-66
2021/12/31 00:42:41;;;;;;;8.90;3.00;;;;;;;12.48;91.76;101751.22;5063333;28;20060;-66
2021/12/31 00:45:09;;;;;;;10.73;3.10;;;;;;;12.49;91.44;101744.06;5061886;28;20029;-66
2021/12/31 00:47:35;;;;;;;6.63;2.33;;;;;;;12.50;91.46;101748.44;5061046;28;20080;-66
2021/12/31 00:50:01;;;;;;;6.72;2.80;;;;;;;12.52;91.57;101743.84;5060317;28;20033;-66
2021/12/31 00:52:26;;;;;;;6.30;2.50;;;;;;;12.52;91.43;101730.53;5059129;28;20056;-66
2021/12/31 00:54:52;;;;;;;7.03;2.70;;;;;;;12.53;91.25;101745.56;5059629;28;20093;-66
2021/12/31 00:57:17;;;;;;;6.38;2.55;;;;;;;12.53;90.95;101745.56;5059389;28;20041;-66
2021/12/31 00:59:42;;;;;;;6.50;2.70;;;;;;;12.52;91.30;101746.50;5058863;28;20041;-66
2021/12/31 01:02:11;;;;;;;5.90;2.88;;;;;;;12.53;90.67;101749.06;5060127;28;20024;-65
2021/12/31 01:04:37;;;;;;;6.82;2.75;;;;;;;12.54;90.80;101753.47;5058020;28;20040;-64
2021/12/31 01:07:02;;;;;;;6.15;2.72;;;;;;;12.54;90.47;101747.25;5059274;28;20047;-64
2021/12/31 01:09:29;;;;;;;7.07;2.55;;;;;;;12.53;90.58;101753.56;5061065;28;20028;-64
2021/12/31 01:11:56;;;;;;;6.18;2.53;;;;;;;12.52;90.62;101751.84;5059714;28;20056;-64
2021/12/31 01:14:35;;;;;;;7.53;2.90;;;;;;;12.51;90.74;101744.84;5060864;28;20022;-66
2021/12/31 01:17:04;;;;;;;12.75;2.70;;;;;;;12.51;90.47;101739.50;5060434;28;20355;-67
2021/12/31 01:19:46;;;;;;;7.80;2.58;;;;;;;12.49;90.62;101741.41;5061838;28;20088;-66
2021/12/31 01:22:26;;;;;;;5.80;2.75;;;;;;;12.54;90.56;101739.25;5041008;28;20096;-64
2021/12/31 01:24:51;;;;;;;8.50;2.60;;;;;;;12.50;90.47;101735.13;5045526;28;20483;-65
2021/12/31 01:27:16;;;;;;;8.88;2.90;;;;;;;12.51;90.17;101744.84;5061816;28;20078;-64
2021/12/31 01:29:42;;;;;;;7.53;2.70;;;;;;;12.50;89.92;101738.63;5060886;28;20048;-65
2021/12/31 01:32:09;;;;;;;6.47;2.50;;;;;;;12.50;90.16;101740.44;5062143;28;20032;-64
2021/12/31 01:34:34;;;;;;;7.32;2.33;;;;;;;12.49;90.11;101741.41;5061663;28;20036;-64
2021/12/31 01:37:00;;;;;;;7.50;2.60;;;;;;;12.47;90.16;101738.84;5062975;28;20491;-65
2021/12/31 01:39:26;;;;;;;7.72;2.50;;;;;;;12.47;89.81;101744.16;5061949;28;20032;-64
2021/12/31 01:41:52;;;;;;;6.93;2.50;;;;;;;12.48;89.97;101747.72;5061852;28;20037;-65
2021/12/31 01:44:20;;;;;;;12.15;2.42;;;;;;;12.47;90.19;101749.50;5061212;28;20032;-65
2021/12/31 01:47:00;;;;;;;4.97;2.50;;;;;;;12.46;90.05;101738.97;5059826;28;20379;-65
2021/12/31 01:49:35;;;;;;;4.38;2.53;;;;;;;12.47;89.72;101749.50;5058307;28;20033;-64
2021/12/31 01:52:01;;;;;;;3.78;2.42;;;;;;;12.49;89.55;101744.06;5058579;28;20039;-65
2021/12/31 01:54:28;;;;;;;6.13;2.67;;;;;;;12.51;89.12;101750.16;5058019;28;20071;-65
2021/12/31 01:56:54;;;;;;;6.22;2.55;;;;;;;12.50;89.10;101751.94;5058925;28;20033;-65
2021/12/31 01:59:20;;;;;;;6.30;2.38;;;;;;;12.53;89.12;101758.91;5042710;28;20034;-64
2021/12/31 02:01:46;;;;;;;5.70;2.58;;;;;;;12.53;89.00;101762.41;5039893;28;20028;-65
2021/12/31 02:04:11;;;;;;;8.18;2.80;;;;;;;12.52;88.86;101758.06;5039916;28;20065;-64
2021/12/31 02:06:36;;;;;;;7.53;2.55;;;;;;;12.53;88.79;101764.22;5040573;28;20026;-64
2021/12/31 02:09:04;;;;;;;9.10;2.60;;;;;;;12.56;88.93;101758.69;5056663;28;20475;-64
2021/12/31 02:11:30;;;;;;;6.75;2.92;;;;;;;12.55;88.39;101754.31;5062937;28;20024;-64
2021/12/31 02:13:56;;;;;;;7.97;2.63;;;;;;;12.55;88.71;101762.28;5063128;28;20159;-64
2021/12/31 02:16:22;;;;;;;9.05;2.63;;;;;;;12.55;88.36;101764.97;5063320;28;20032;-64
2021/12/31 02:18:47;;;;;;;6.95;2.60;;;;;;;12.55;88.57;101760.47;5062118;28;20025;-65
2021/12/31 02:21:13;;;;;;;6.20;2.50;;;;;;;12.56;88.39;101756.88;5063846;28;20032;-64
2021/12/31 02:23:44;;;;;;;4.75;2.70;;;;;;;12.56;88.16;101766.69;5062779;28;20033;-64
2021/12/31 02:26:11;;;;;;;5.25;2.40;;;;;;;12.55;88.69;101757.81;5063119;28;20036;-64
2021/12/31 02:28:37;;;;;;;6.15;2.72;;;;;;;12.53;88.39;101759.72;5062824;28;20025;-65
2021/12/31 02:31:03;;;;;;;8.40;2.28;;;;;;;12.52;88.25;101758.06;5062632;28;20032;-65
2021/12/31 02:33:30;;;;;;;9.60;2.40;;;;;;;12.49;88.62;101750.28;5063555;28;20033;-65
2021/12/31 02:35:56;;;;;;;5.30;2.35;;;;;;;12.48;88.82;101755.69;5063197;28;20021;-65
2021/12/31 02:38:21;;;;;;;4.90;2.30;;;;;;;12.48;88.86;101756.53;5061983;28;20056;-64
2021/12/31 02:40:46;;;;;;;5.75;2.22;;;;;;;12.47;88.57;101746.84;5063772;28;20083;-65
2021/12/31 02:43:12;;;;;;;6.50;2.40;;;;;;;12.48;88.06;101739.72;5062417;28;20302;-65
2021/12/31 02:45:40;;;;;;;5.57;2.22;;;;;;;12.48;88.50;101745.03;5062606;28;20108;-64
2021/12/31 02:48:06;;;;;;;5.45;2.45;;;;;;;12.45;88.40;101740.78;5061286;28;20014;-64
2021/12/31 02:50:34;;;;;;;7.35;2.42;;;;;;;12.45;88.31;101737.25;5062547;28;20371;-65
2021/12/31 02:53:08;;;;;;;6.95;2.35;;;;;;;12.48;88.76;101737.06;5061391;28;20037;-64
2021/12/31 02:55:36;;;;;;;5.20;2.60;;;;;;;12.44;88.19;101732.88;5061510;28;20025;-65
2021/12/31 02:58:03;;;;;;;5.88;2.58;;;;;;;12.43;88.49;101733.88;5061525;28;20029;-65
2021/12/31 03:00:28;;;;;;;6.15;2.58;;;;;;;12.43;88.25;101737.38;5062403;28;20025;-65
2021/12/31 03:02:55;;;;;;;7.28;2.60;;;;;;;12.43;88.45;101740.03;5061440;28;20053;-64
2021/12/31 03:05:22;;;;;;;8.38;2.38;;;;;;;12.41;88.17;101736.63;5061977;28;20021;-64
2021/12/31 03:07:47;;;;;;;5.45;2.35;;;;;;;12.42;88.30;101742.81;5062342;28;20029;-64
2021/12/31 03:10:14;;;;;;;7.03;2.55;;;;;;;12.40;88.77;101740.25;5061121;28;20032;-64
2021/12/31 03:12:41;;;;;;;5.25;2.40;;;;;;;12.38;88.74;101742.16;5061125;28;20513;-65
2021/12/31 03:15:08;;;;;;;5.40;2.38;;;;;;;12.36;88.43;101738.78;5060952;28;20029;-64
2021/12/31 03:17:33;;;;;;;8.07;2.47;;;;;;;12.36;88.67;101741.44;5061197;28;20032;-65
2021/12/31 03:20:14;;;;;;;6.82;2.55;;;;;;;12.34;88.67;101725.56;5061412;28;20021;-65
2021/12/31 03:22:41;;;;;;;9.68;2.60;;;;;;;12.34;88.90;101732.66;5061353;28;20379;-65
2021/12/31 03:25:07;;;;;;;8.10;2.70;;;;;;;12.32;88.76;101719.47;5060716;28;20059;-66
2021/12/31 03:27:32;;;;;;;5.35;2.28;;;;;;;12.33;88.58;101728.31;5061240;28;20561;-65
2021/12/31 03:29:58;;;;;;;7.65;2.70;;;;;;;12.33;88.21;101728.31;5060175;28;20025;-65
2021/12/31 03:32:24;;;;;;;7.50;2.78;;;;;;;12.33;88.22;101728.31;5060446;28;20029;-64
2021/12/31 03:34:50;;;;;;;8.15;2.72;;;;;;;12.31;88.21;101725.75;5060279;28;20033;-64
2021/12/31 03:37:15;;;;;;;7.05;2.53;;;;;;;12.31;88.63;101722.25;5061377;28;20395;-65
2021/12/31 03:39:40;;;;;;;7.28;3.22;;;;;;;12.30;88.60;101715.22;5061723;28;20094;-64
2021/12/31 03:42:05;;;;;;;5.13;2.60;;;;;;;12.28;88.37;101712.66;5062072;28;20083;-64
2021/12/31 03:44:31;;;;;;;13.38;2.92;;;;;;;12.28;88.53;101704.66;5062667;28;20047;-65
2021/12/31 03:46:56;;;;;;;6.10;2.67;;;;;;;12.28;88.39;101704.66;5060392;28;20041;-64
2021/12/31 03:49:21;;;;;;;6.40;2.63;;;;;;;12.27;88.35;101694.94;5059949;28;20024;-65
2021/12/31 03:51:46;;;;;;;9.68;3.17;;;;;;;12.28;88.18;101701.16;5059255;28;20029;-65
2021/12/31 03:54:12;;;;;;;7.72;2.70;;;;;;;12.27;88.04;101705.59;5059699;28;20119;-65
2021/12/31 03:56:37;;;;;;;9.50;3.08;;;;;;;12.24;88.30;101697.84;5056657;28;20029;-65
2021/12/31 03:59:03;;;;;;;8.13;3.10;;;;;;;12.24;87.92;101705.84;5058781;28;20521;-65
2021/12/31 04:01:28;;;;;;;6.90;2.57;;;;;;;12.23;88.11;101712.13;5059774;28;20512;-66
2021/12/31 04:03:55;;;;;;;9.82;2.72;;;;;;;12.23;88.17;101712.13;5058577;28;20306;-65
2021/12/31 04:06:21;;;;;;;9.68;2.58;;;;;;;12.21;88.59;101712.22;5059785;28;20040;-65
2021/12/31 04:08:47;;;;;;;6.78;2.85;;;;;;;12.22;88.45;101707.75;5058701;28;20087;-65
2021/12/31 04:11:13;;;;;;;7.47;2.53;;;;;;;12.19;88.58;101705.28;5058797;28;20025;-65
2021/12/31 04:13:39;;;;;;;7.72;3.08;;;;;;;12.23;88.47;101705.97;5058087;28;20437;-65
2021/12/31 04:16:05;;;;;;;11.23;3.05;;;;;;;12.23;88.30;101711.28;5056205;28;20029;-65
2021/12/31 04:18:30;;;;;;;10.38;3.15;;;;;;;12.23;88.08;101712.13;5057975;28;20052;-65
2021/12/31 04:20:57;;;;;;;7.15;2.97;;;;;;;12.23;88.60;101713.94;5062636;28;20239;-65
2021/12/31 04:23:30;;;;;;;10.32;3.15;;;;;;;12.23;88.39;101711.28;5056752;28;20047;-65
2021/12/31 04:25:57;;;;;;;10.00;3.42;;;;;;;12.21;88.28;101714.91;5055955;28;20114;-65
2021/12/31 04:28:23;;;;;;;7.25;3.28;;;;;;;12.25;88.30;101709.34;5055504;28;20025;-65
2021/12/31 04:30:49;;;;;;;7.90;2.70;;;;;;;12.24;88.41;101711.19;5054983;28;20028;-66
2021/12/31 04:33:14;;;;;;;11.05;3.72;;;;;;;12.25;88.30;101704.03;5055817;28;20039;-65
2021/12/31 04:35:39;;;;;;;7.77;3.03;;;;;;;12.24;88.49;101700.53;5056011;28;20017;-65
2021/12/31 04:38:04;;;;;;;8.77;3.22;;;;;;;12.24;88.49;101703.19;5055443;28;20283;-64
2021/12/31 04:40:31;;;;;;;7.40;2.72;;;;;;;12.23;88.60;101700.63;5056121;28;20406;-64
2021/12/31 04:42:56;;;;;;;9.07;3.10;;;;;;;12.21;88.46;101698.91;5055982;28;20054;-65
2021/12/31 04:45:21;;;;;;;10.20;3.33;;;;;;;12.22;88.29;101699.75;5054918;28;20025;-65
2021/12/31 04:47:47;;;;;;;6.72;3.17;;;;;;;12.21;88.36;101688.25;5053669;28;20033;-64
2021/12/31 04:50:13;;;;;;;9.35;3.47;;;;;;;12.21;88.14;101688.25;5054612;28;20044;-66
2021/12/31 04:52:39;;;;;;;8.07;3.40;;;;;;;12.20;88.19;101677.72;5054921;28;20036;-64
2021/12/31 04:55:05;;;;;;;10.40;3.05;;;;;;;12.18;88.09;101682.31;5055114;28;20017;-64
2021/12/31 04:57:30;;;;;;;5.78;2.65;;;;;;;12.18;88.11;101695.63;5055161;28;20108;-64
2021/12/31 04:59:55;;;;;;;6.82;2.83;;;;;;;12.17;87.81;101691.25;5054123;28;20064;-65
2021/12/31 05:02:21;;;;;;;7.47;2.92;;;;;;;12.16;87.79;101692.22;5053671;28;20036;-64
2021/12/31 05:04:46;;;;;;;9.75;3.40;;;;;;;12.16;88.00;101690.41;5054656;28;20033;-65
2021/12/31 05:07:11;;;;;;;10.38;3.33;;;;;;;12.16;87.56;101687.72;5052134;28;20120;-64
2021/12/31 05:09:37;;;;;;;9.80;3.55;;;;;;;12.16;87.58;101694.88;5052896;28;20061;-65
2021/12/31 05:12:04;;;;;;;5.78;3.13;;;;;;;12.15;87.43;101688.69;5052611;28;20025;-64
2021/12/31 05:14:29;;;;;;;8.65;3.25;;;;;;;12.17;87.31;101699.22;5053937;28;20479;-64
2021/12/31 05:16:55;;;;;;;8.63;2.92;;;;;;;12.15;87.42;101686.00;5052845;28;20129;-64
2021/12/31 05:19:20;;;;;;;5.32;3.13;;;;;;;12.15;87.52;101686.00;5053604;28;20036;-64
2021/12/31 05:21:45;;;;;;;6.57;2.77;;;;;;;12.14;87.40;101684.34;5054106;28;20116;-65
2021/12/31 05:24:14;;;;;;;12.20;3.55;;;;;;;12.14;87.10;101684.34;5053792;28;20996;-64
2021/12/31 05:26:39;;;;;;;8.03;3.20;;;;;;;12.10;87.54;101682.81;5055026;28;20111;-65
2021/12/31 05:29:04;;;;;;;4.25;2.95;;;;;;;12.08;87.63;101683.91;5053876;28;20052;-65
2021/12/31 05:31:29;;;;;;;9.73;3.10;;;;;;;12.07;87.51;101676.88;5053746;28;20041;-64
2021/12/31 05:33:55;;;;;;;10.98;3.50;;;;;;;12.05;87.74;101678.78;5055158;28;20789;-64
2021/12/31 05:36:20;;;;;;;9.20;3.05;;;;;;;12.04;87.58;101661.97;5054195;28;20029;-64
2021/12/31 05:38:45;;;;;;;6.80;3.03;;;;;;;12.01;87.53;101660.34;5054276;28;20020;-64
2021/12/31 05:41:11;;;;;;;7.05;2.55;;;;;;;11.99;87.57;101659.63;5053714;28;20033;-64
2021/12/31 05:43:37;;;;;;;6.65;2.90;;;;;;;11.95;87.24;101652.78;5054106;28;20103;-64
2021/12/31 05:46:02;;;;;;;5.60;3.13;;;;;;;11.92;87.02;101644.16;5055904;28;20063;-64
2021/12/31 05:48:29;;;;;;;8.68;3.00;;;;;;;11.91;87.12;101648.66;5057058;28;20376;-63
2021/12/31 05:50:55;;;;;;;6.63;3.00;;;;;;;11.90;86.85;101640.75;5058974;28;20029;-63
2021/12/31 05:53:20;;;;;;;8.43;3.00;;;;;;;11.84;87.17;101639.38;5058599;28;20039;-64
2021/12/31 05:55:45;;;;;;;9.48;3.20;;;;;;;11.82;87.06;101642.13;5058636;28;20037;-64
2021/12/31 05:58:11;;;;;;;6.05;2.78;;;;;;;11.77;87.10;101638.06;5058784;28;20051;-64
2021/12/31 06:00:36;;;;;;;3.90;2.50;;;;;;;11.73;87.37;101644.56;5058401;28;20032;-64
2021/12/31 06:03:01;;;;;;;8.07;2.70;;;;;;;11.70;87.63;101647.44;5058425;28;20055;-64
2021/12/31 06:05:27;;;;;;;5.82;2.83;;;;;;;11.65;87.78;101651.25;5059120;28;20283;-64
2021/12/31 06:07:55;;;;;;;6.38;2.97;;;;;;;11.61;87.42;101652.44;5058720;28;20024;-64
2021/12/31 06:10:22;;;;;;;9.43;2.85;;;;;;;11.57;87.73;101645.59;5058264;28;20021;-64
2021/12/31 06:12:47;;;;;;;5.13;2.70;;;;;;;11.57;87.75;101655.41;5058261;28;20027;-64
2021/12/31 06:15:16;;;;;;;4.07;2.22;;;;;;;11.52;87.69;101650.38;5058062;28;20497;-65
2021/12/31 06:17:41;;;;;;;6.50;2.67;;;;;;;11.51;87.61;101653.13;5057790;28;20145;-64
2021/12/31 06:20:07;;;;;;;9.38;2.92;;;;;;;11.47;88.02;101655.16;5059755;28;20116;-64
2021/12/31 06:22:34;;;;;;;6.32;2.50;;;;;;;11.45;87.90;101667.72;5059140;28;20025;-64
2021/12/31 06:24:59;;;;;;;7.47;2.53;;;;;;;11.42;87.78;101666.13;5059799;28;20126;-64
2021/12/31 06:27:24;;;;;;;7.25;2.95;;;;;;;11.41;88.17;101668.91;5058665;28;20037;-64
2021/12/31 06:29:49;;;;;;;5.20;2.60;;;;;;;11.38;88.22;101666.44;5059594;28;20120;-65
2021/12/31 06:32:15;;;;;;;5.80;2.50;;;;;;;11.35;87.89;101664.81;5058102;28;20036;-64
2021/12/31 06:34:40;;;;;;;4.43;2.40;;;;;;;11.34;87.66;101648.97;5058766;28;20116;-64
2021/12/31 06:37:05;;;;;;;6.07;2.35;;;;;;;11.33;88.03;101668.56;5057011;28;20372;-65
2021/12/31 06:39:31;;;;;;;8.43;2.80;;;;;;;11.31;88.11;101671.31;5057950;28;20084;-65
2021/12/31 06:41:56;;;;;;;6.35;2.42;;;;;;;11.27;88.14;101668.00;5057747;28;20056;-64
2021/12/31 06:44:21;;;;;;;10.80;2.60;;;;;;;11.25;88.37;101679.69;5056713;28;20025;-63
2021/12/31 06:46:46;;;;;;;6.88;2.60;;;;;;;11.22;88.11;101683.38;5056883;28;21029;-63
2021/12/31 06:49:12;;;;;;;8.18;2.67;;;;;;;11.19;88.60;101691.59;5056189;28;20392;-64
2021/12/31 06:51:37;;;;;;;6.88;2.70;;;;;;;11.17;88.44;101697.94;5056382;28;20036;-65
2021/12/31 06:54:03;;;;;;;5.05;2.58;;;;;;;11.12;88.21;101692.94;5056674;28;20059;-64
2021/12/31 06:56:28;;;;;;;6.75;2.75;;;;;;;11.11;88.16;101677.94;5058597;28;20036;-64
2021/12/31 06:58:53;;;;;;;3.58;2.40;;;;;;;11.08;88.46;101670.16;5057551;28;20115;-65
2021/12/31 07:01:19;;;;;;;7.60;2.80;;;;;;;11.04;88.72;101677.50;5056665;28;20036;-65
2021/12/31 07:03:44;;;;;;;4.72;2.58;;;;;;;11.02;88.66;101674.06;5053648;28;20044;-65
2021/12/31 07:06:09;;;;;;;6.10;2.80;;;;;;;11.00;88.79;101691.91;5060545;28;20036;-64
2021/12/31 07:08:35;;;;;;;8.82;3.05;;;;;;;10.96;88.94;101693.09;5062497;28;20033;-65
2021/12/31 07:11:00;;;;;;;4.35;2.67;;;;;;;10.95;88.79;101703.81;5056426;28;20092;-65
2021/12/31 07:13:26;;;;;;;6.90;2.72;;;;;;;10.92;88.87;101700.41;5054096;28;20029;-65
2021/12/31 07:15:51;;;;;;;6.90;2.45;;;;;;;10.89;88.85;101697.94;5052648;28;20025;-67
2021/12/31 07:18:18;;;;;;;7.30;3.00;;;;;;;10.85;88.74;101688.44;5042632;28;20059;-65
2021/12/31 07:20:44;;;;;;;7.78;3.47;;;;;;;10.86;88.83;101694.63;5051144;28;20025;-65
2021/12/31 07:23:11;;;;;;;7.32;2.72;;;;;;;10.83;88.81;101701.00;5055563;28;20071;-65
2021/12/31 07:25:40;;;;;;;5.07;2.70;;;;;;;10.81;88.88;101705.56;5055423;28;20025;-65
2021/12/31 07:28:07;;;;;;;7.10;3.05;;;;;;;10.76;89.16;101699.69;5051661;28;20102;-65
2021/12/31 07:30:32;;;;;;;5.53;2.72;;;;;;;10.77;89.16;101712.00;5052315;28;20111;-65
2021/12/31 07:32:58;;;;;;;7.35;3.08;;;;;;;10.73;89.30;101699.88;5052225;28;20045;-65
2021/12/31 07:35:24;;;;;;;5.47;3.00;;;;;;;10.73;89.13;101705.19;5055151;28;20399;-65
2021/12/31 07:37:56;;;;;;;6.72;3.10;;;;;;;10.70;89.47;101708.88;5052845;28;20033;-66
2021/12/31 07:40:28;;;;;;;5.32;2.95;;;;;;;10.69;89.23;101715.16;5054516;28;20033;-65
2021/12/31 07:42:54;;;;;;;6.78;2.80;;;;;;;10.67;89.22;101705.56;5052061;28;20045;-65
2021/12/31 07:45:20;;;;;;;6.35;2.85;;;;;;;10.65;89.40;101703.00;5049043;28;20033;-65
2021/12/31 07:47:45;;;;;;;6.57;3.05;;;;;;;10.64;89.46;101709.28;5055181;28;20041;-64
2021/12/31 07:50:11;;;;;;;9.38;3.28;;;;;;;10.63;89.41;101706.72;5052475;28;20083;-65
2021/12/31 07:52:37;;;;;;;4.57;3.00;;;;;;;10.60;89.41;101710.41;5043186;28;20048;-66
2021/12/31 07:55:02;;;;;;;5.88;3.00;;;;;;;10.59;89.41;101715.81;5054391;28;20437;-65
2021/12/31 07:57:27;;;;;;;5.03;2.90;;;;;;;10.59;89.18;101726.44;5055893;28;20044;-65
2021/12/31 07:59:53;;;;;;;5.97;3.03;;;;;;;10.58;89.30;101711.47;5051081;28;20032;-68
2021/12/31 08:02:18;;;;;;;5.87;3.00;;;;;;;10.58;89.50;101724.75;5050679;28;20048;-65
2021/12/31 08:04:43;;;;;;;5.13;2.97;;;;;;;10.56;89.24;101730.16;5062706;28;20303;-65
2021/12/31 08:07:08;;;;;;;6.10;2.90;;;;;;;10.55;89.32;101739.06;5075816;28;20434;-66
2021/12/31 08:09:34;;;;;;;4.03;3.13;;;;;;;10.58;89.10;101733.56;5057598;28;20419;-67
2021/12/31 08:11:59;;;;;;;3.65;2.70;;;;;;;10.57;89.08;101734.50;5057123;28;20495;-66
2021/12/31 08:14:24;;;;;;;5.95;3.00;;;;;;;10.56;89.17;101730.16;5055257;28;20032;-65
2021/12/31 08:16:49;;;;;;;5.40;3.00;;;;;;;10.58;89.09;101732.72;5055386;28;20061;-65
2021/12/31 08:19:15;;;;;;;7.00;3.03;;;;;;;10.58;89.01;101736.22;5055629;28;20032;-65
2021/12/31 08:21:40;;;;;;;7.07;3.10;;;;;;;10.60;89.01;101733.47;5057390;28;20346;-66
2021/12/31 08:24:05;;;;;;;6.38;3.00;;;;;;;10.59;88.57;101710.50;5058780;28;20033;-65
2021/12/31 08:26:31;;;;;;;6.00;2.95;;;;;;;10.66;88.74;101709.19;5059995;28;20091;-65
2021/12/31 08:28:56;;;;;;;6.10;3.03;;;;;;;10.68;88.35;101700.16;5053785;28;20021;-65
2021/12/31 08:31:21;;;;;;;6.93;2.50;;;;;;;10.72;87.98;101688.41;5052842;28;20548;-66
2021/12/31 08:33:47;;;;;;;4.15;2.58;;;;;;;10.73;88.14;101703.38;5056466;28;20208;-64
2021/12/31 08:36:12;;;;;;;6.22;2.67;;;;;;;10.75;88.20;101708.59;5049868;28;20036;-64
2021/12/31 08:38:37;;;;;;;4.32;3.33;;;;;;;10.77;87.89;101709.34;5058315;28;20083;-65
2021/12/31 08:41:03;;;;;;;3.92;2.83;;;;;;;10.80;87.76;101718.94;5057049;28;20047;-64
2021/12/31 08:43:28;;;;;;;4.90;2.92;;;;;;;10.81;87.53;101712.66;5057071;28;20033;-64
2021/12/31 08:45:54;;;;;;;4.22;2.70;;;;;;;10.84;87.11;101718.66;5056702;28;20085;-65
2021/12/31 08:48:19;;;;;;;4.22;2.55;;;;;;;10.85;87.40;101712.38;5058263;28;20088;-63
2021/12/31 08:50:45;;;;;;;4.03;2.53;;;;;;;10.88;87.32;101700.69;5058053;28;20036;-63
2021/12/31 08:53:11;;;;;;;3.92;2.60;;;;;;;10.91;86.87;101697.84;5056993;28;20116;-63
2021/12/31 08:55:36;;;;;;;5.47;2.85;;;;;;;10.92;86.89;101688.91;5057009;28;20036;-66
2021/12/31 08:58:02;;;;;;;3.42;2.40;;;;;;;10.98;86.57;101682.34;5054741;28;20476;-64
2021/12/31 09:00:27;;;;;;;7.55;2.53;;;;;;;11.01;86.28;101675.03;5052896;28;20029;-64
2021/12/31 09:02:52;;;;;;;5.75;2.42;;;;;;;11.02;86.39;101684.69;5053926;28;20045;-65
2021/12/31 09:05:18;;;;;;;4.35;2.65;;;;;;;11.06;86.11;101685.38;5054628;28;20025;-65
2021/12/31 09:07:44;;;;;;;3.80;2.40;;;;;;;11.06;86.37;101688.88;5054480;28;20039;-64
2021/12/31 09:10:10;;;;;;;8.20;3.00;;;;;;;11.07;85.98;101687.94;5052895;28;20471;-64
2021/12/31 09:12:36;;;;;;;3.65;2.78;;;;;;;11.11;85.52;101688.59;5053394;28;21126;-64
2021/12/31 09:15:03;;;;;;;5.43;2.80;;;;;;;11.12;85.90;101703.56;5052723;28;20033;-64
2021/12/31 09:17:28;;;;;;;4.80;2.75;;;;;;;11.13;85.96;101699.13;5053508;28;20497;-65
2021/12/31 09:19:53;;;;;;;3.67;2.33;;;;;;;11.14;85.48;101692.81;5054992;28;20029;-64
2021/12/31 09:22:19;;;;;;;5.05;2.70;;;;;;;11.16;85.54;101699.75;5057337;28;20045;-64
2021/12/31 09:24:44;;;;;;;5.97;2.75;;;;;;;11.18;85.72;101703.16;5057720;28;20380;-65
2021/12/31 09:27:10;;;;;;;7.28;2.70;;;;;;;11.22;85.54;101709.13;5058439;28;20065;-64
2021/12/31 09:29:35;;;;;;;5.15;3.20;;;;;;;11.25;85.02;101707.13;5057369;28;20025;-64
2021/12/31 09:32:00;;;;;;;4.70;2.67;;;;;;;11.28;85.25;101711.41;5043832;28;20037;-64
2021/12/31 09:34:25;;;;;;;5.57;2.60;;;;;;;11.29;85.18;101721.94;5033077;28;20029;-64
2021/12/31 09:36:51;;;;;;;3.08;2.53;;;;;;;11.31;85.35;101729.81;5037610;28;20040;-64
2021/12/31 09:39:16;;;;;;;4.35;2.50;;;;;;;11.33;84.70;101732.38;5038786;28;20047;-64
2021/12/31 09:41:42;;;;;;;5.75;2.75;;;;;;;11.33;84.93;101740.38;5036566;28;20529;-64
2021/12/31 09:44:07;;;;;;;5.70;3.30;;;;;;;11.33;84.80;101754.50;5043989;28;20029;-65
2021/12/31 09:46:34;;;;;;;4.55;2.45;;;;;;;11.33;84.95;101741.22;5050593;28;20040;-64
2021/12/31 09:48:59;;;;;;;4.32;2.60;;;;;;;11.39;84.16;101745.25;5056248;28;20077;-64
2021/12/31 09:51:25;;;;;;;4.15;2.45;;;;;;;11.39;84.84;101755.91;5054240;28;20033;-64
2021/12/31 09:53:52;;;;;;;3.92;2.20;;;;;;;11.39;84.35;101756.78;5055236;28;20102;-63
2021/12/31 09:56:17;;;;;;;6.93;2.80;;;;;;;11.40;84.42;101754.97;5056101;28;20048;-64
2021/12/31 09:58:43;;;;;;;3.80;2.50;;;;;;;11.42;84.20;101747.72;5055621;28;20025;-67
2021/12/31 10:01:09;;;;;;;4.75;2.80;;;;;;;11.43;84.07;101746.78;5055904;28;20026;-65
2021/12/31 10:03:36;;;;;;;4.47;2.60;;;;;;;11.43;84.64;101726.34;5054719;28;20138;-64
2021/12/31 10:06:09;;;;;;;3.22;2.20;;;;;;;11.42;84.28;101737.97;5055677;28;20056;-64
2021/12/31 10:08:46;;;;;;;5.90;2.75;;;;;;;11.43;84.94;101744.13;5055727;28;20025;-64
2021/12/31 10:11:17;;;;;;;3.80;2.65;;;;;;;11.42;84.12;101753.91;5054651;28;20386;-63
2021/12/31 10:13:47;;;;;;;6.00;3.03;;;;;;;11.43;84.40;101746.78;5055336;28;20024;-64
2021/12/31 10:16:19;;;;;;;2.75;2.45;;;;;;;11.42;84.48;101726.44;5054971;28;20063;-64
2021/12/31 10:18:45;;;;;;;5.10;2.45;;;;;;;11.42;84.03;101708.69;5052865;28;20028;-64
2021/12/31 10:21:10;;;;;;;6.25;2.78;;;;;;;11.43;83.79;101712.19;5055837;28;20033;-64
2021/12/31 10:23:39;;;;;;;7.35;2.95;;;;;;;11.44;84.58;101753.78;5054258;28;20037;-64
2021/12/31 10:26:06;;;;;;;8.55;2.72;;;;;;;11.44;84.49;101743.16;5044151;28;20124;-64
2021/12/31 10:28:31;;;;;;;5.40;2.67;;;;;;;11.43;84.50;101717.53;5037492;28;20044;-64
2021/12/31 10:31:09;;;;;;;4.55;2.53;;;;;;;11.40;85.00;101713.25;5052809;28;20024;-66
2021/12/31 10:33:42;;;;;;;5.85;2.70;;;;;;;11.43;84.52;101718.34;5030274;28;20381;-64
2021/12/31 10:36:08;;;;;;;3.17;2.60;;;;;;;11.44;84.27;101725.41;5047880;28;20036;-64
2021/12/31 10:38:39;;;;;;;6.10;2.65;;;;;;;11.43;84.48;101713.03;5052171;28;20041;-64
2021/12/31 10:41:05;;;;;;;5.32;2.60;;;;;;;11.46;84.26;101718.16;5035624;28;20055;-64
2021/12/31 10:43:30;;;;;;;6.53;2.55;;;;;;;11.47;84.56;101738.50;5035732;28;20034;-64
2021/12/31 10:46:10;;;;;;;3.63;2.38;;;;;;;11.49;84.76;101746.38;5049411;28;20021;-64
2021/12/31 10:48:50;;;;;;;6.75;2.80;;;;;;;11.52;84.79;101738.16;5054802;28;20070;-64
2021/12/31 10:51:36;;;;;;;5.00;2.60;;;;;;;11.54;84.81;101738.94;5061021;28;20489;-65
2021/12/31 10:54:19;;;;;;;3.92;2.97;;;;;;;11.62;84.66;101754.38;5030348;28;20094;-66
2021/12/31 10:56:45;;;;;;;4.70;2.90;;;;;;;11.64;83.93;101744.47;5031305;28;20462;-68
2021/12/31 10:59:10;;;;;;;6.25;2.88;;;;;;;11.68;84.03;101745.16;5034768;28;20033;-65
2021/12/31 11:01:36;;;;;;;3.55;2.80;;;;;;;11.69;83.90;101729.09;5048714;28;20021;-67
2021/12/31 11:04:01;;;;;;;6.40;3.00;;;;;;;11.70;83.75;101728.13;5044850;28;20049;-65
2021/12/31 11:06:27;;;;;;;5.00;3.20;;;;;;;11.72;83.62;101725.34;5052351;28;20027;-64
2021/12/31 11:08:55;;;;;;;4.68;2.50;;;;;;;11.73;83.70;101724.41;5056112;28;20075;-64
2021/12/31 11:11:22;;;;;;;3.33;2.90;;;;;;;11.72;83.76;101730.69;5051353;28;20434;-64
2021/12/31 11:13:49;;;;;;;5.50;2.92;;;;;;;11.71;83.73;101723.63;5036238;28;20033;-64
2021/12/31 11:16:14;;;;;;;7.95;3.25;;;;;;;11.70;83.94;101705.97;5028770;28;20033;-67
2021/12/31 11:18:41;;;;;;;5.35;3.05;;;;;;;11.72;83.44;101709.38;5044350;28;20033;-64
2021/12/31 11:21:09;;;;;;;4.75;2.95;;;;;;;11.75;84.06;101710.03;5048765;28;20474;-64